Aérodrome :
LOGIN :

S'inscrire | Disclaimer

   EN    FR    IT 

 










Légende :    VFR   VFR Marginal   IFR   IFR Intensif   IFR Très Intensif
Visi : 
Plafond : 
>= 8 km
>= 3000ft
5 à 8 km
1000 à 3000 ft
1500m à 5 km
500 à 1000 ft
800 à 1500m
200 à 500 ft
< 800m
< 200 ft
Symboles :   Orages  Brouillard  Fortes neiges  Fortes précipitations  Vent > 20 kt
SIGMETs :   Divers  Orages  Givrage  Turbulence  Onde Orograph.  Cendres Volcan.






- Altitude de l'aérodrome : 459 ft
- Code IATA : CER


LFRC - Cherbourg / Maupertus

DERNIER METAR :
  • 230230Z AUTO 10006KT 8000 FEW013 OVC110 11/10 Q1017

METARs EXPIRÉS :
  • 230200Z AUTO 07004KT 7000 BKN012 OVC110 11/10 Q1018
  • 230130Z AUTO 08004KT 050V110 7000 FEW014 SCT110 OVC130 10/10 Q1018
  • 230100Z AUTO 09003KT 7000 FEW012 SCT018 OVC120 10/09 Q1019
  • 230030Z AUTO 08003KT 7000 SCT013 BKN120 10/09 Q1019
  • 230000Z AUTO 10004KT 9000 FEW011 10/09 Q1019

Prévision TAF périmée.



MET'MAP, la Météo Aéronautique d'un coup d'oeil ! - Copyright ORBIFLY Décembre 2007 - Disclaimer

ORBIFLY MET'MAP TEAM :

Programmation & Développement : Alexandra Zaïnal
Conception & Développement : Baudouin d'Aumeries
Co-Programmation & Développement : Marc-Olivier Méhu
Soutien technique & logistique : Manuel Goepfert

Contact : metmap@orbifly.com




SOURCES & CREDITS :

   NOAA